createdAt,value
2023-03-11T00:00:13.523Z,5.24
2023-03-11T00:04:15.127Z,4.76
2023-03-11T00:08:19.777Z,4.48
2023-03-11T00:12:22.031Z,4.22
2023-03-11T00:16:23.622Z,4.50
2023-03-11T00:20:29.250Z,4.86
2023-03-11T00:24:30.880Z,4.85
2023-03-11T00:28:52.731Z,4.49
2023-03-11T00:33:15.813Z,4.49
2023-03-11T00:37:37.263Z,4.39
2023-03-11T00:41:39.127Z,4.53
2023-03-11T00:45:41.301Z,4.44
2023-03-11T00:49:43.113Z,4.27
2023-03-11T00:53:45.026Z,4.22
2023-03-11T00:57:46.994Z,4.22
2023-03-11T01:01:48.940Z,4.49
2023-03-11T01:05:50.558Z,4.20
2023-03-11T01:09:52.196Z,4.45
2023-03-11T01:13:53.703Z,4.32
2023-03-11T01:17:56.577Z,4.32
2023-03-11T01:21:58.302Z,4.45
2023-03-11T01:25:59.996Z,4.60
2023-03-11T01:30:02.341Z,4.67
2023-03-11T01:34:04.198Z,4.65
2023-03-11T01:38:05.778Z,4.62
2023-03-11T01:42:27.134Z,4.77
2023-03-11T01:46:51.638Z,4.46
2023-03-11T01:50:56.630Z,4.51
2023-03-11T01:54:58.399Z,4.49
2023-03-11T01:59:00.430Z,4.44
2023-03-11T02:03:09.274Z,4.55
2023-03-11T02:07:12.374Z,4.40
2023-03-11T02:11:26.262Z,4.57
2023-03-11T02:15:28.473Z,4.53
2023-03-11T02:19:35.008Z,4.78
2023-03-11T02:23:50.794Z,4.66
2023-03-11T02:27:55.287Z,4.56
2023-03-11T02:32:04.772Z,4.64
2023-03-11T02:36:07.387Z,4.46
2023-03-11T02:40:38.354Z,4.58
2023-03-11T02:44:44.140Z,4.40
2023-03-11T02:48:47.449Z,4.53
2023-03-11T02:52:49.999Z,4.47
2023-03-11T02:56:51.706Z,4.37
2023-03-11T03:00:53.836Z,4.21
2023-03-11T03:04:55.634Z,4.25
2023-03-11T03:08:57.510Z,4.11
2023-03-11T03:12:59.929Z,4.19
2023-03-11T03:17:02.041Z,4.22
2023-03-11T03:21:04.424Z,4.33
2023-03-11T03:25:07.013Z,4.41
2023-03-11T03:29:08.673Z,4.24
2023-03-11T03:33:10.702Z,4.18
2023-03-11T03:37:12.655Z,4.16
2023-03-11T03:41:18.249Z,4.13
2023-03-11T03:45:20.121Z,4.08
2023-03-11T03:49:23.510Z,4.08
2023-03-11T03:53:46.578Z,3.89
2023-03-11T03:58:08.907Z,3.88
2023-03-11T04:02:31.509Z,3.73
2023-03-11T04:06:53.428Z,3.81
2023-03-11T04:11:15.157Z,3.93
2023-03-11T04:15:39.552Z,3.97
2023-03-11T04:20:01.739Z,3.85
2023-03-11T04:24:24.159Z,3.98
2023-03-11T04:28:46.161Z,4.04
2023-03-11T04:32:49.514Z,4.32
2023-03-11T04:36:55.289Z,4.40
2023-03-11T04:41:04.351Z,4.26
2023-03-11T04:45:07.217Z,4.15
2023-03-11T04:49:09.840Z,4.16
2023-03-11T04:53:12.076Z,4.13
2023-03-11T04:57:14.011Z,4.02
2023-03-11T05:01:18.688Z,4.30
2023-03-11T05:05:20.671Z,4.06
2023-03-11T05:09:22.679Z,4.13
2023-03-11T05:13:24.464Z,4.01
2023-03-11T05:17:27.535Z,4.43
2023-03-11T05:21:29.955Z,4.59
2023-03-11T05:25:32.237Z,4.69
2023-03-11T05:29:54.041Z,4.02
2023-03-11T05:34:17.604Z,4.16
2023-03-11T05:38:40.028Z,4.29
2023-03-11T05:43:02.296Z,4.45
2023-03-11T05:47:27.003Z,4.64
2023-03-11T05:51:44.544Z,4.54
2023-03-11T05:55:56.124Z,4.70
2023-03-11T05:59:58.194Z,4.77
2023-03-11T06:04:00.432Z,4.86
2023-03-11T06:08:02.509Z,5.01
2023-03-11T06:12:05.032Z,4.93
2023-03-11T06:16:21.362Z,4.49
2023-03-11T06:20:23.122Z,5.15
2023-03-11T06:24:25.893Z,5.79
2023-03-11T06:28:28.774Z,5.81
2023-03-11T06:32:31.034Z,5.61
2023-03-11T06:36:33.162Z,5.85
2023-03-11T06:40:34.716Z,5.99
2023-03-11T06:44:36.759Z,6.05
2023-03-11T06:48:38.670Z,6.14
2023-03-11T06:52:40.394Z,5.83
2023-03-11T06:56:42.949Z,5.76
2023-03-11T07:00:44.700Z,6.63
2023-03-11T07:04:49.528Z,7.17
2023-03-11T07:08:53.757Z,7.19
2023-03-11T07:12:55.198Z,6.27
2023-03-11T07:16:58.213Z,6.48
2023-03-11T07:21:08.077Z,6.99
2023-03-11T07:25:09.830Z,7.11
2023-03-11T07:29:11.232Z,6.76
2023-03-11T07:33:13.276Z,6.56
2023-03-11T07:37:15.392Z,6.78
2023-03-11T07:41:16.926Z,6.42
2023-03-11T07:45:18.442Z,6.56
2023-03-11T07:49:20.054Z,7.15
2023-03-11T07:53:21.541Z,6.56
2023-03-11T07:57:22.992Z,6.19
2023-03-11T08:01:27.094Z,6.61
2023-03-11T08:05:28.534Z,6.49
2023-03-11T08:09:29.995Z,6.64
2023-03-11T08:13:31.448Z,6.96
2023-03-11T08:17:33.071Z,7.13
2023-03-11T08:21:34.502Z,7.13
2023-03-11T08:25:38.801Z,7.36
2023-03-11T08:29:40.211Z,6.95
2023-03-11T08:33:44.053Z,6.72
2023-03-11T08:37:45.621Z,7.16
2023-03-11T08:41:47.069Z,6.77
2023-03-11T08:45:48.596Z,6.89
2023-03-11T08:49:50.096Z,6.87
2023-03-11T08:53:52.403Z,7.22
2023-03-11T08:57:54.321Z,7.02
2023-03-11T09:01:55.760Z,6.74
2023-03-11T09:06:01.722Z,6.76
2023-03-11T09:10:04.216Z,6.80
2023-03-11T09:14:05.880Z,6.93
2023-03-11T09:18:09.065Z,7.69
2023-03-11T09:22:10.604Z,6.85
2023-03-11T09:26:12.698Z,7.20
2023-03-11T09:30:14.297Z,6.72
2023-03-11T09:34:16.328Z,6.83
2023-03-11T09:38:17.837Z,6.97
2023-03-11T09:42:35.324Z,7.16
2023-03-11T09:46:39.576Z,7.60
2023-03-11T09:50:48.697Z,8.18
2023-03-11T09:54:55.569Z,7.50
2023-03-11T09:59:04.754Z,7.31
2023-03-11T10:03:17.603Z,7.23
2023-03-11T10:07:25.905Z,7.61
2023-03-11T10:11:44.746Z,7.56
2023-03-11T10:15:56.475Z,7.38
2023-03-11T10:20:47.622Z,7.31
2023-03-11T10:25:01.068Z,7.10
2023-03-11T10:29:16.588Z,7.04
2023-03-11T10:33:28.800Z,7.29
2023-03-11T10:37:48.384Z,7.27
2023-03-11T10:42:10.744Z,8.02
2023-03-11T10:46:23.061Z,8.29
2023-03-11T10:50:24.711Z,7.54
2023-03-11T10:54:35.945Z,7.61
2023-03-11T10:58:47.809Z,7.51
2023-03-11T11:02:59.931Z,7.76
2023-03-11T11:07:26.530Z,8.23
2023-03-11T11:11:27.950Z,7.41
2023-03-11T11:15:33.901Z,7.78
2023-03-11T11:19:36.049Z,8.04
2023-03-11T11:23:42.501Z,7.65
2023-03-11T11:27:55.980Z,7.12
2023-03-11T11:32:15.536Z,7.50
2023-03-11T11:36:18.468Z,7.61
2023-03-11T11:40:30.459Z,7.43
2023-03-11T11:44:34.742Z,7.61
2023-03-11T11:48:49.386Z,7.78
2023-03-11T11:53:04.586Z,7.55
2023-03-11T11:57:14.902Z,7.65
2023-03-11T12:02:05.003Z,7.47
2023-03-11T12:06:28.301Z,7.62
2023-03-11T12:10:32.498Z,7.94
2023-03-11T12:14:43.582Z,7.71
2023-03-11T12:18:51.456Z,7.38
2023-03-11T12:23:34.744Z,7.29
2023-03-11T12:27:51.597Z,7.19
2023-03-11T12:31:55.075Z,7.44
2023-03-11T12:35:58.671Z,7.49
2023-03-11T12:40:00.290Z,7.43
2023-03-11T12:44:04.788Z,7.65
2023-03-11T12:48:32.751Z,7.99
2023-03-11T12:52:52.601Z,7.63
2023-03-11T12:57:01.209Z,7.98
2023-03-11T13:01:33.225Z,8.30
2023-03-11T13:06:09.751Z,8.04
2023-03-11T13:10:15.867Z,7.76
2023-03-11T13:14:31.496Z,8.06
2023-03-11T13:18:33.216Z,8.01
2023-03-11T13:22:51.816Z,7.81
2023-03-11T13:27:04.901Z,7.86
2023-03-11T13:31:34.425Z,7.72
2023-03-11T13:35:51.670Z,7.86
2023-03-11T13:40:31.652Z,8.23
2023-03-11T13:44:40.075Z,8.39
2023-03-11T13:48:46.376Z,8.65
2023-03-11T13:52:50.321Z,8.71
2023-03-11T13:56:56.982Z,8.74
2023-03-11T14:01:00.849Z,8.92
2023-03-11T14:05:07.060Z,9.20
2023-03-11T14:09:19.409Z,8.43
2023-03-11T14:13:22.211Z,8.82
2023-03-11T14:17:23.634Z,9.11
2023-03-11T14:21:25.124Z,8.84
2023-03-11T14:25:31.007Z,8.81
2023-03-11T14:29:40.415Z,9.20
2023-03-11T14:33:41.795Z,9.34
2023-03-11T14:37:43.224Z,9.29
2023-03-11T14:41:44.813Z,9.41
2023-03-11T14:45:48.768Z,9.39
2023-03-11T14:49:51.943Z,9.27
2023-03-11T14:54:25.425Z,9.06
2023-03-11T14:58:34.652Z,9.06
2023-03-11T15:02:48.529Z,9.64
2023-03-11T15:06:50.623Z,9.46
2023-03-11T15:11:12.459Z,9.94
2023-03-11T15:15:24.715Z,9.24
2023-03-11T15:19:28.933Z,9.43
2023-03-11T15:23:30.614Z,9.34
2023-03-11T15:27:37.278Z,9.23
2023-03-11T15:31:40.217Z,8.68
2023-03-11T15:35:49.556Z,8.71
2023-03-11T15:39:52.221Z,9.04
2023-03-11T15:43:54.780Z,8.71
2023-03-11T15:47:56.225Z,8.97
2023-03-11T15:52:02.140Z,9.08
2023-03-11T15:56:22.114Z,8.89
2023-03-11T16:00:24.489Z,9.30
2023-03-11T16:04:26.275Z,8.71
2023-03-11T16:08:27.836Z,9.27
2023-03-11T16:12:29.293Z,9.13
2023-03-11T16:16:31.143Z,9.20
2023-03-11T16:20:37.698Z,8.82
2023-03-11T16:24:39.173Z,7.97
2023-03-11T16:28:41.082Z,7.83
2023-03-11T16:32:43.317Z,7.85
2023-03-11T16:36:44.869Z,7.97
2023-03-11T16:40:56.718Z,7.54
2023-03-11T16:44:58.216Z,7.55
2023-03-11T16:48:59.634Z,7.29
2023-03-11T16:53:01.091Z,7.83
2023-03-11T16:57:03.018Z,7.81
2023-03-11T17:01:04.576Z,7.83
2023-03-11T17:05:07.743Z,7.86
2023-03-11T17:09:09.597Z,7.83
2023-03-11T17:13:17.040Z,8.24
2023-03-11T17:17:20.857Z,7.95
2023-03-11T17:21:22.444Z,7.81
2023-03-11T17:25:24.008Z,8.05
2023-03-11T17:29:25.775Z,8.07
2023-03-11T17:33:27.372Z,8.31
2023-03-11T17:37:28.892Z,8.39
2023-03-11T17:41:30.375Z,8.16
2023-03-11T17:45:31.782Z,8.04
2023-03-11T17:49:33.549Z,8.08
2023-03-11T17:53:36.968Z,8.13
2023-03-11T17:57:45.129Z,8.22
2023-03-11T18:01:47.225Z,7.99
2023-03-11T18:05:56.446Z,7.65
2023-03-11T18:09:57.930Z,7.56
2023-03-11T18:13:59.446Z,7.27
2023-03-11T18:18:01.186Z,7.65
2023-03-11T18:22:02.769Z,7.67
2023-03-11T18:26:07.514Z,7.37
2023-03-11T18:30:11.211Z,7.31
2023-03-11T18:34:14.119Z,7.38
2023-03-11T18:38:16.038Z,7.62
2023-03-11T18:42:17.621Z,7.51
2023-03-11T18:46:19.386Z,7.90
2023-03-11T18:50:21.330Z,7.24
2023-03-11T18:54:22.950Z,7.58
2023-03-11T18:58:24.439Z,7.46
2023-03-11T19:02:26.139Z,7.47
2023-03-11T19:06:28.785Z,7.51
2023-03-11T19:10:30.351Z,7.40
2023-03-11T19:14:31.781Z,7.41
2023-03-11T19:18:33.839Z,7.53
2023-03-11T19:22:36.098Z,7.07
2023-03-11T19:26:46.616Z,7.27
2023-03-11T19:30:52.541Z,7.44
2023-03-11T19:34:53.982Z,6.96
2023-03-11T19:38:55.444Z,6.85
2023-03-11T19:42:59.019Z,6.92
2023-03-11T19:47:00.475Z,7.04
2023-03-11T19:51:08.315Z,7.08
2023-03-11T19:55:10.196Z,7.23
2023-03-11T19:59:12.170Z,6.91
2023-03-11T20:03:15.001Z,6.72
2023-03-11T20:07:16.631Z,7.24
2023-03-11T20:11:18.200Z,6.97
2023-03-11T20:15:19.642Z,7.32
2023-03-11T20:19:21.315Z,6.94
2023-03-11T20:23:22.786Z,7.12
2023-03-11T20:27:24.257Z,7.12
2023-03-11T20:31:27.439Z,6.70
2023-03-11T20:35:28.874Z,6.91
2023-03-11T20:39:30.376Z,6.86
2023-03-11T20:43:38.498Z,6.76
2023-03-11T20:47:40.116Z,6.86
2023-03-11T20:51:43.671Z,6.61
2023-03-11T20:55:45.292Z,6.58
2023-03-11T20:59:46.873Z,6.80
2023-03-11T21:03:48.749Z,6.78
2023-03-11T21:07:50.428Z,6.88
2023-03-11T21:11:51.937Z,6.89
2023-03-11T21:15:55.190Z,6.77
2023-03-11T21:19:57.250Z,7.01
2023-03-11T21:23:58.889Z,6.77
2023-03-11T21:28:00.354Z,6.72
2023-03-11T21:32:01.816Z,6.77
2023-03-11T21:36:03.581Z,6.72
2023-03-11T21:40:07.446Z,6.60
2023-03-11T21:44:09.058Z,6.80
2023-03-11T21:48:11.284Z,7.05
2023-03-11T21:52:12.933Z,6.77
2023-03-11T21:56:15.561Z,6.72
2023-03-11T22:00:17.241Z,6.74
2023-03-11T22:04:18.955Z,6.90
2023-03-11T22:08:20.429Z,6.82
2023-03-11T22:12:22.196Z,6.77
2023-03-11T22:16:24.433Z,7.00
2023-03-11T22:20:26.166Z,6.89
2023-03-11T22:24:27.605Z,6.87
2023-03-11T22:28:29.252Z,6.84
2023-03-11T22:32:30.778Z,6.55
2023-03-11T22:36:32.335Z,7.14
2023-03-11T22:40:35.054Z,6.71
2023-03-11T22:44:36.611Z,6.69
2023-03-11T22:48:38.025Z,6.50
2023-03-11T22:52:39.488Z,6.58
2023-03-11T22:56:41.009Z,6.61
2023-03-11T23:00:44.111Z,6.48
2023-03-11T23:04:45.801Z,6.37
2023-03-11T23:08:47.562Z,6.51
2023-03-11T23:12:49.194Z,6.41
2023-03-11T23:16:50.666Z,6.44
2023-03-11T23:20:52.092Z,6.23
2023-03-11T23:24:53.597Z,6.01
2023-03-11T23:28:55.944Z,6.25
2023-03-11T23:32:57.862Z,6.19
2023-03-11T23:36:59.335Z,6.14
2023-03-11T23:41:01.270Z,6.14
2023-03-11T23:45:03.147Z,6.03
2023-03-11T23:49:04.617Z,5.88
2023-03-11T23:53:06.135Z,5.95
2023-03-11T23:57:07.738Z,5.91
